Portada
METAR-TAF:

METAR-TAF

Aeropuertos :

Aeropuerto Internacional de Nội Bài

Hanói, Vietnam

latitud: 21-01N, longitud: 105-48E, altitud: 6 m

Observación

El informe se hizo hace 43 minutos, a las 10:00 UTC
Viento 9 kt del este-sureste
Temperatura 30°C
Humedad 84%
Presión 1006 hPa
Visibilidad 10 km o más
Escasas nubes a una altura de 2800 ft
Nubes dispersas a una altura de 3500 ft

METAR: VVNB 081000Z 12009KT 9999 FEW028 SCT035 30/27 Q1006 NOSIG

Hora: 17:43 (10:43 UTC)

Pronóstico

El informe se hizo hace 5 horas y 43 minutos, a las 05:00 UTC
Pronóstico válido del 08 a las 06 UTC al 09 a las 06 UTC
Viento 7 kt del sureste
Visibilidad: 8000 m
Nubes dispersas a una altura de 2000 ft
Evolucionando progresivamente
del 08 a las 20 UTC al 08 a las 21 UTC
Visibilidad: 4000 m
neblina
Evolucionando progresivamente
del 09 a las 01 UTC al 09 a las 02 UTC
Visibilidad: 7000 m

TAF: VVNB 080500Z 0806/0906 14007KT 8000 SCT020 BECMG 0820/0821 4000 BR BECMG 0901/0902 7000 NSW

Observaciones y pronósticos meteorológicos de más de 4000 aeropuertos (mensajes METAR y TAF).

Los puntos amarillos y rojos representan las estaciones disponibles.

Ponga el ratón en el punto deseado para ver el nombre de la estación.

Haga clic para ver las observaciones y los pronósticos meteorológicos.

Para cambiar el mapa : haga clic en los botones verdes con una cruz de color negro para hacer un zoom, en el botón verde con un guión para alejar o en las flechas verdes para mapas adyacentes.


METAR-TAF: